sensor_id;sensor_type;location;lat;lon;timestamp;temperature;humidity
43561;DHT22;32305;46.410;17.394;2022-07-22T00:01:19;26.80;44.10
43561;DHT22;32305;46.410;17.394;2022-07-22T00:03:46;26.90;44.20
43561;DHT22;32305;46.410;17.394;2022-07-22T00:06:14;26.80;44.10
43561;DHT22;32305;46.410;17.394;2022-07-22T00:08:41;26.80;44.20
43561;DHT22;32305;46.410;17.394;2022-07-22T00:11:08;26.80;44.10
43561;DHT22;32305;46.410;17.394;2022-07-22T00:13:36;26.80;44.10
43561;DHT22;32305;46.410;17.394;2022-07-22T00:16:03;26.80;44.10
43561;DHT22;32305;46.410;17.394;2022-07-22T00:18:31;26.80;44.10
43561;DHT22;32305;46.410;17.394;2022-07-22T00:20:58;26.80;44.10
43561;DHT22;32305;46.410;17.394;2022-07-22T00:23:25;26.80;44.10
43561;DHT22;32305;46.410;17.394;2022-07-22T00:25:52;26.80;44.20
43561;DHT22;32305;46.410;17.394;2022-07-22T00:28:20;26.80;44.20
43561;DHT22;32305;46.410;17.394;2022-07-22T00:30:47;26.80;44.20
43561;DHT22;32305;46.410;17.394;2022-07-22T00:33:19;26.80;44.30
43561;DHT22;32305;46.410;17.394;2022-07-22T00:35:46;26.70;44.20
43561;DHT22;32305;46.410;17.394;2022-07-22T00:38:13;26.70;44.30
43561;DHT22;32305;46.410;17.394;2022-07-22T00:40:41;26.70;44.20
43561;DHT22;32305;46.410;17.394;2022-07-22T00:43:08;26.70;44.30
43561;DHT22;32305;46.410;17.394;2022-07-22T00:45:35;26.70;44.30
43561;DHT22;32305;46.410;17.394;2022-07-22T00:48:03;26.70;44.30
43561;DHT22;32305;46.410;17.394;2022-07-22T00:50:32;26.70;44.30
43561;DHT22;32305;46.410;17.394;2022-07-22T00:53:00;26.70;44.30
43561;DHT22;32305;46.410;17.394;2022-07-22T00:55:28;26.70;44.40
43561;DHT22;32305;46.410;17.394;2022-07-22T00:57:55;26.70;44.40
43561;DHT22;32305;46.410;17.394;2022-07-22T01:00:23;26.70;44.40
43561;DHT22;32305;46.410;17.394;2022-07-22T01:02:50;26.70;44.40
43561;DHT22;32305;46.410;17.394;2022-07-22T01:05:18;26.70;44.40
43561;DHT22;32305;46.410;17.394;2022-07-22T01:07:46;26.70;44.50
43561;DHT22;32305;46.410;17.394;2022-07-22T01:10:13;26.70;44.40
43561;DHT22;32305;46.410;17.394;2022-07-22T01:12:41;26.70;44.50
43561;DHT22;32305;46.410;17.394;2022-07-22T01:15:08;26.70;45.00
43561;DHT22;32305;46.410;17.394;2022-07-22T01:17:35;26.70;44.50
43561;DHT22;32305;46.410;17.394;2022-07-22T01:20:07;26.70;44.50
43561;DHT22;32305;46.410;17.394;2022-07-22T01:22:34;26.70;44.50
43561;DHT22;32305;46.410;17.394;2022-07-22T01:25:02;26.70;44.50
43561;DHT22;32305;46.410;17.394;2022-07-22T01:27:29;26.70;44.50
43561;DHT22;32305;46.410;17.394;2022-07-22T01:29:56;26.70;44.50
43561;DHT22;32305;46.410;17.394;2022-07-22T01:32:24;26.60;44.50
43561;DHT22;32305;46.410;17.394;2022-07-22T01:34:51;26.60;44.40
43561;DHT22;32305;46.410;17.394;2022-07-22T01:37:18;26.70;44.50
43561;DHT22;32305;46.410;17.394;2022-07-22T01:39:45;26.70;44.50
43561;DHT22;32305;46.410;17.394;2022-07-22T01:42:13;26.70;44.60
43561;DHT22;32305;46.410;17.394;2022-07-22T01:44:40;26.70;44.50
43561;DHT22;32305;46.410;17.394;2022-07-22T01:47:08;26.70;44.60
43561;DHT22;32305;46.410;17.394;2022-07-22T01:49:36;26.70;44.60
43561;DHT22;32305;46.410;17.394;2022-07-22T01:52:04;26.60;44.50
43561;DHT22;32305;46.410;17.394;2022-07-22T01:54:32;26.60;44.50
43561;DHT22;32305;46.410;17.394;2022-07-22T01:57:02;26.60;44.50
43561;DHT22;32305;46.410;17.394;2022-07-22T01:59:29;26.60;44.50
43561;DHT22;32305;46.410;17.394;2022-07-22T02:01:56;26.60;44.60
43561;DHT22;32305;46.410;17.394;2022-07-22T02:04:24;26.60;44.60
43561;DHT22;32305;46.410;17.394;2022-07-22T02:06:53;26.60;44.60
43561;DHT22;32305;46.410;17.394;2022-07-22T02:09:20;26.60;44.60
43561;DHT22;32305;46.410;17.394;2022-07-22T02:11:47;26.60;44.60
43561;DHT22;32305;46.410;17.394;2022-07-22T02:14:14;26.60;44.60
43561;DHT22;32305;46.410;17.394;2022-07-22T02:16:41;26.60;44.60
43561;DHT22;32305;46.410;17.394;2022-07-22T02:19:09;26.60;44.60
43561;DHT22;32305;46.410;17.394;2022-07-22T02:21:36;26.60;44.70
43561;DHT22;32305;46.410;17.394;2022-07-22T02:24:04;26.60;44.70
43561;DHT22;32305;46.410;17.394;2022-07-22T02:26:32;26.60;44.70
43561;DHT22;32305;46.410;17.394;2022-07-22T02:28:59;26.50;44.60
43561;DHT22;32305;46.410;17.394;2022-07-22T02:31:26;26.60;44.70
43561;DHT22;32305;46.410;17.394;2022-07-22T02:33:54;26.50;44.60
43561;DHT22;32305;46.410;17.394;2022-07-22T02:36:23;26.60;44.70
43561;DHT22;32305;46.410;17.394;2022-07-22T02:38:50;26.50;44.70
43561;DHT22;32305;46.410;17.394;2022-07-22T02:41:18;26.50;44.70
43561;DHT22;32305;46.410;17.394;2022-07-22T02:43:46;26.50;44.70
43561;DHT22;32305;46.410;17.394;2022-07-22T02:46:13;26.50;44.70
43561;DHT22;32305;46.410;17.394;2022-07-22T02:48:40;26.50;44.70
43561;DHT22;32305;46.410;17.394;2022-07-22T02:51:07;26.50;44.80
43561;DHT22;32305;46.410;17.394;2022-07-22T02:53:35;26.50;44.80
43561;DHT22;32305;46.410;17.394;2022-07-22T02:56:02;26.50;44.80
43561;DHT22;32305;46.410;17.394;2022-07-22T02:58:29;26.50;44.80
43561;DHT22;32305;46.410;17.394;2022-07-22T03:00:56;26.50;44.80
43561;DHT22;32305;46.410;17.394;2022-07-22T03:03:24;26.50;44.80
43561;DHT22;32305;46.410;17.394;2022-07-22T03:05:51;26.50;44.80
43561;DHT22;32305;46.410;17.394;2022-07-22T03:08:18;26.50;44.80
43561;DHT22;32305;46.410;17.394;2022-07-22T03:10:45;26.60;44.90
43561;DHT22;32305;46.410;17.394;2022-07-22T03:13:12;26.50;44.80
43561;DHT22;32305;46.410;17.394;2022-07-22T03:15:40;26.50;44.80
43561;DHT22;32305;46.410;17.394;2022-07-22T03:18:07;26.50;44.80
43561;DHT22;32305;46.410;17.394;2022-07-22T03:20:34;26.50;44.80
43561;DHT22;32305;46.410;17.394;2022-07-22T03:23:01;26.60;44.80
43561;DHT22;32305;46.410;17.394;2022-07-22T03:25:29;26.50;44.80
43561;DHT22;32305;46.410;17.394;2022-07-22T03:27:58;26.50;44.80
43561;DHT22;32305;46.410;17.394;2022-07-22T03:30:25;26.50;44.80
43561;DHT22;32305;46.410;17.394;2022-07-22T03:32:52;26.50;44.80
43561;DHT22;32305;46.410;17.394;2022-07-22T03:35:19;26.50;44.80
43561;DHT22;32305;46.410;17.394;2022-07-22T03:37:47;26.50;44.80
43561;DHT22;32305;46.410;17.394;2022-07-22T03:40:14;26.50;44.80
43561;DHT22;32305;46.410;17.394;2022-07-22T03:42:41;26.50;44.80
43561;DHT22;32305;46.410;17.394;2022-07-22T03:45:12;26.50;44.80
43561;DHT22;32305;46.410;17.394;2022-07-22T03:47:40;26.50;44.80
43561;DHT22;32305;46.410;17.394;2022-07-22T03:50:07;26.60;44.80
43561;DHT22;32305;46.410;17.394;2022-07-22T03:52:34;26.60;44.80
43561;DHT22;32305;46.410;17.394;2022-07-22T03:55:03;26.60;44.80
43561;DHT22;32305;46.410;17.394;2022-07-22T03:57:31;26.60;44.80
43561;DHT22;32305;46.410;17.394;2022-07-22T03:59:58;26.60;44.70
43561;DHT22;32305;46.410;17.394;2022-07-22T04:02:25;26.60;44.70
43561;DHT22;32305;46.410;17.394;2022-07-22T04:04:52;26.60;44.70
43561;DHT22;32305;46.410;17.394;2022-07-22T04:07:19;26.60;44.70
43561;DHT22;32305;46.410;17.394;2022-07-22T04:09:47;26.60;44.60
43561;DHT22;32305;46.410;17.394;2022-07-22T04:12:14;26.70;44.70
43561;DHT22;32305;46.410;17.394;2022-07-22T04:14:41;26.70;44.60
43561;DHT22;32305;46.410;17.394;2022-07-22T04:17:08;26.70;44.60
43561;DHT22;32305;46.410;17.394;2022-07-22T04:19:41;26.70;44.60
43561;DHT22;32305;46.410;17.394;2022-07-22T04:22:08;26.70;44.50
43561;DHT22;32305;46.410;17.394;2022-07-22T04:24:36;26.80;44.60
43561;DHT22;32305;46.410;17.394;2022-07-22T04:27:03;26.70;44.50
43561;DHT22;32305;46.410;17.394;2022-07-22T04:29:30;26.80;44.50
43561;DHT22;32305;46.410;17.394;2022-07-22T04:31:57;26.80;44.50
43561;DHT22;32305;46.410;17.394;2022-07-22T04:34:29;26.90;44.50
43561;DHT22;32305;46.410;17.394;2022-07-22T04:36:56;26.80;44.40
43561;DHT22;32305;46.410;17.394;2022-07-22T04:39:23;26.90;44.40
43561;DHT22;32305;46.410;17.394;2022-07-22T04:41:50;26.90;44.30
43561;DHT22;32305;46.410;17.394;2022-07-22T04:44:18;26.90;44.20
43561;DHT22;32305;46.410;17.394;2022-07-22T04:46:45;26.90;44.20
43561;DHT22;32305;46.410;17.394;2022-07-22T04:49:13;27.00;44.30
43561;DHT22;32305;46.410;17.394;2022-07-22T04:51:40;27.00;44.30
43561;DHT22;32305;46.410;17.394;2022-07-22T04:54:08;27.00;44.20
43561;DHT22;32305;46.410;17.394;2022-07-22T04:56:35;27.00;44.10
43561;DHT22;32305;46.410;17.394;2022-07-22T04:59:03;27.00;44.10
43561;DHT22;32305;46.410;17.394;2022-07-22T05:01:30;27.10;44.10
43561;DHT22;32305;46.410;17.394;2022-07-22T05:03:57;27.10;44.00
43561;DHT22;32305;46.410;17.394;2022-07-22T05:06:25;27.10;43.90
43561;DHT22;32305;46.410;17.394;2022-07-22T05:08:52;27.10;44.10
43561;DHT22;32305;46.410;17.394;2022-07-22T05:11:19;27.00;44.30
43561;DHT22;32305;46.410;17.394;2022-07-22T05:13:47;27.00;44.70
43561;DHT22;32305;46.410;17.394;2022-07-22T05:16:15;26.90;45.00
43561;DHT22;32305;46.410;17.394;2022-07-22T05:18:42;26.70;45.40
43561;DHT22;32305;46.410;17.394;2022-07-22T05:21:09;26.50;45.90
43561;DHT22;32305;46.410;17.394;2022-07-22T05:23:36;26.20;46.80
43561;DHT22;32305;46.410;17.394;2022-07-22T05:26:04;25.90;47.80
43561;DHT22;32305;46.410;17.394;2022-07-22T05:28:32;25.60;48.20
43561;DHT22;32305;46.410;17.394;2022-07-22T05:30:59;25.20;48.30
43561;DHT22;32305;46.410;17.394;2022-07-22T05:33:27;24.90;48.20
43561;DHT22;32305;46.410;17.394;2022-07-22T05:35:55;24.60;48.40
43561;DHT22;32305;46.410;17.394;2022-07-22T05:38:22;24.20;48.50
43561;DHT22;32305;46.410;17.394;2022-07-22T05:40:49;23.90;48.80
43561;DHT22;32305;46.410;17.394;2022-07-22T05:43:16;23.60;48.90
43561;DHT22;32305;46.410;17.394;2022-07-22T05:45:44;23.30;49.60
43561;DHT22;32305;46.410;17.394;2022-07-22T05:48:11;23.00;50.20
43561;DHT22;32305;46.410;17.394;2022-07-22T05:50:38;22.80;50.90
43561;DHT22;32305;46.410;17.394;2022-07-22T05:53:06;22.60;51.70
43561;DHT22;32305;46.410;17.394;2022-07-22T05:55:33;22.40;51.60
43561;DHT22;32305;46.410;17.394;2022-07-22T05:58:01;22.30;52.00
43561;DHT22;32305;46.410;17.394;2022-07-22T06:00:28;22.10;51.70
43561;DHT22;32305;46.410;17.394;2022-07-22T06:02:57;22.00;52.10
43561;DHT22;32305;46.410;17.394;2022-07-22T06:05:25;21.90;52.30
43561;DHT22;32305;46.410;17.394;2022-07-22T06:08:07;21.80;52.50
43561;DHT22;32305;46.410;17.394;2022-07-22T06:10:35;21.70;53.20
43561;DHT22;32305;46.410;17.394;2022-07-22T06:13:02;21.60;53.60
43561;DHT22;32305;46.410;17.394;2022-07-22T06:15:29;21.50;54.00
43561;DHT22;32305;46.410;17.394;2022-07-22T06:17:57;21.50;54.90
43561;DHT22;32305;46.410;17.394;2022-07-22T06:20:24;21.50;55.30
43561;DHT22;32305;46.410;17.394;2022-07-22T06:22:51;21.50;55.40
43561;DHT22;32305;46.410;17.394;2022-07-22T06:25:18;21.40;55.50
43561;DHT22;32305;46.410;17.394;2022-07-22T06:28:06;21.40;56.50
43561;DHT22;32305;46.410;17.394;2022-07-22T06:30:33;21.40;56.30
43561;DHT22;32305;46.410;17.394;2022-07-22T06:33:01;21.40;56.20
43561;DHT22;32305;46.410;17.394;2022-07-22T06:35:28;21.40;56.50
43561;DHT22;32305;46.410;17.394;2022-07-22T06:37:55;21.40;57.00
43561;DHT22;32305;46.410;17.394;2022-07-22T06:40:34;21.50;56.80
43561;DHT22;32305;46.410;17.394;2022-07-22T06:43:02;21.50;56.90
43561;DHT22;32305;46.410;17.394;2022-07-22T06:45:30;21.60;56.90
43561;DHT22;32305;46.410;17.394;2022-07-22T06:47:58;21.60;57.10
43561;DHT22;32305;46.410;17.394;2022-07-22T06:50:25;21.60;57.20
43561;DHT22;32305;46.410;17.394;2022-07-22T06:52:55;21.60;56.80
43561;DHT22;32305;46.410;17.394;2022-07-22T06:55:23;21.60;57.20
43561;DHT22;32305;46.410;17.394;2022-07-22T06:57:50;21.60;57.30
43561;DHT22;32305;46.410;17.394;2022-07-22T07:00:17;21.70;57.80
43561;DHT22;32305;46.410;17.394;2022-07-22T07:02:45;21.60;57.60
43561;DHT22;32305;46.410;17.394;2022-07-22T07:05:15;21.60;57.80
43561;DHT22;32305;46.410;17.394;2022-07-22T07:07:46;21.70;57.90
43561;DHT22;32305;46.410;17.394;2022-07-22T07:10:14;21.70;58.00
43561;DHT22;32305;46.410;17.394;2022-07-22T07:12:43;21.70;57.90
43561;DHT22;32305;46.410;17.394;2022-07-22T07:15:10;21.80;58.20
43561;DHT22;32305;46.410;17.394;2022-07-22T07:17:55;21.80;58.30
43561;DHT22;32305;46.410;17.394;2022-07-22T07:20:24;21.80;57.90
43561;DHT22;32305;46.410;17.394;2022-07-22T07:22:53;21.90;58.00
43561;DHT22;32305;46.410;17.394;2022-07-22T07:25:21;22.00;58.00
43561;DHT22;32305;46.410;17.394;2022-07-22T07:27:51;22.10;57.70
43561;DHT22;32305;46.410;17.394;2022-07-22T07:30:20;22.10;57.50
43561;DHT22;32305;46.410;17.394;2022-07-22T07:32:48;22.10;57.30
43561;DHT22;32305;46.410;17.394;2022-07-22T07:35:15;22.20;57.20
43561;DHT22;32305;46.410;17.394;2022-07-22T07:37:42;22.20;57.10
43561;DHT22;32305;46.410;17.394;2022-07-22T07:40:10;22.20;56.80
43561;DHT22;32305;46.410;17.394;2022-07-22T07:42:37;22.20;56.70
43561;DHT22;32305;46.410;17.394;2022-07-22T07:45:13;22.20;56.80
43561;DHT22;32305;46.410;17.394;2022-07-22T07:47:41;22.20;56.90
43561;DHT22;32305;46.410;17.394;2022-07-22T07:50:09;22.20;56.90
43561;DHT22;32305;46.410;17.394;2022-07-22T07:52:42;22.20;56.70
43561;DHT22;32305;46.410;17.394;2022-07-22T07:55:18;22.20;56.70
43561;DHT22;32305;46.410;17.394;2022-07-22T07:57:47;22.10;56.60
43561;DHT22;32305;46.410;17.394;2022-07-22T08:00:23;22.10;56.60
43561;DHT22;32305;46.410;17.394;2022-07-22T08:02:51;22.10;56.50
43561;DHT22;32305;46.410;17.394;2022-07-22T08:05:19;22.10;56.50
43561;DHT22;32305;46.410;17.394;2022-07-22T08:07:52;22.10;56.60
43561;DHT22;32305;46.410;17.394;2022-07-22T08:10:20;22.10;56.70
43561;DHT22;32305;46.410;17.394;2022-07-22T08:13:07;22.10;56.60
43561;DHT22;32305;46.410;17.394;2022-07-22T08:15:35;22.10;56.60
43561;DHT22;32305;46.410;17.394;2022-07-22T08:18:03;22.10;56.50
43561;DHT22;32305;46.410;17.394;2022-07-22T08:20:31;22.10;56.60
43561;DHT22;32305;46.410;17.394;2022-07-22T08:22:58;22.10;56.40
43561;DHT22;32305;46.410;17.394;2022-07-22T08:25:26;22.10;56.60
43561;DHT22;32305;46.410;17.394;2022-07-22T08:27:54;22.10;56.90
43561;DHT22;32305;46.410;17.394;2022-07-22T08:30:22;22.00;56.80
43561;DHT22;32305;46.410;17.394;2022-07-22T08:32:54;22.10;57.10
43561;DHT22;32305;46.410;17.394;2022-07-22T08:35:21;22.00;56.90
43561;DHT22;32305;46.410;17.394;2022-07-22T08:37:48;22.00;57.00
43561;DHT22;32305;46.410;17.394;2022-07-22T08:40:17;22.00;56.80
43561;DHT22;32305;46.410;17.394;2022-07-22T08:42:47;22.00;56.70
43561;DHT22;32305;46.410;17.394;2022-07-22T08:45:15;22.00;56.60
43561;DHT22;32305;46.410;17.394;2022-07-22T08:47:50;22.00;56.50
43561;DHT22;32305;46.410;17.394;2022-07-22T08:50:18;22.00;56.40
43561;DHT22;32305;46.410;17.394;2022-07-22T08:52:47;22.00;56.40
43561;DHT22;32305;46.410;17.394;2022-07-22T08:55:15;22.00;56.20
43561;DHT22;32305;46.410;17.394;2022-07-22T08:57:46;22.00;57.40
43561;DHT22;32305;46.410;17.394;2022-07-22T09:00:21;22.10;58.30
43561;DHT22;32305;46.410;17.394;2022-07-22T09:02:49;22.30;57.80
43561;DHT22;32305;46.410;17.394;2022-07-22T09:05:17;22.50;57.80
43561;DHT22;32305;46.410;17.394;2022-07-22T09:08:05;22.70;57.30
43561;DHT22;32305;46.410;17.394;2022-07-22T09:10:34;22.90;56.70
43561;DHT22;32305;46.410;17.394;2022-07-22T09:13:04;23.00;56.00
43561;DHT22;32305;46.410;17.394;2022-07-22T09:15:34;23.20;56.00
43561;DHT22;32305;46.410;17.394;2022-07-22T09:18:04;23.20;55.50
43561;DHT22;32305;46.410;17.394;2022-07-22T09:20:35;23.30;55.40
43561;DHT22;32305;46.410;17.394;2022-07-22T09:23:10;23.30;55.60
43561;DHT22;32305;46.410;17.394;2022-07-22T09:25:38;23.40;56.00
43561;DHT22;32305;46.410;17.394;2022-07-22T09:28:11;23.40;55.70
43561;DHT22;32305;46.410;17.394;2022-07-22T09:30:49;23.50;55.60
43561;DHT22;32305;46.410;17.394;2022-07-22T09:33:20;23.50;55.10
43561;DHT22;32305;46.410;17.394;2022-07-22T09:35:47;23.50;54.60
43561;DHT22;32305;46.410;17.394;2022-07-22T09:38:19;23.50;54.30
43561;DHT22;32305;46.410;17.394;2022-07-22T09:40:53;23.60;54.20
43561;DHT22;32305;46.410;17.394;2022-07-22T09:43:21;23.60;54.10
43561;DHT22;32305;46.410;17.394;2022-07-22T09:45:54;23.60;54.10
43561;DHT22;32305;46.410;17.394;2022-07-22T09:48:25;23.60;54.20
43561;DHT22;32305;46.410;17.394;2022-07-22T09:50:54;23.60;54.30
43561;DHT22;32305;46.410;17.394;2022-07-22T09:53:25;23.70;54.50
43561;DHT22;32305;46.410;17.394;2022-07-22T09:55:54;23.70;54.40
43561;DHT22;32305;46.410;17.394;2022-07-22T09:58:21;23.70;54.30
43561;DHT22;32305;46.410;17.394;2022-07-22T10:00:49;23.70;54.30
43561;DHT22;32305;46.410;17.394;2022-07-22T10:03:29;23.70;54.20
43561;DHT22;32305;46.410;17.394;2022-07-22T10:05:58;23.70;54.20
43561;DHT22;32305;46.410;17.394;2022-07-22T10:08:27;23.70;54.10
43561;DHT22;32305;46.410;17.394;2022-07-22T10:10:58;23.70;53.80
43561;DHT22;32305;46.410;17.394;2022-07-22T10:13:26;23.70;53.30
43561;DHT22;32305;46.410;17.394;2022-07-22T10:15:55;23.70;52.90
43561;DHT22;32305;46.410;17.394;2022-07-22T10:18:24;23.70;52.60
43561;DHT22;32305;46.410;17.394;2022-07-22T10:21:07;23.60;52.30
43561;DHT22;32305;46.410;17.394;2022-07-22T10:23:35;23.70;52.10
43561;DHT22;32305;46.410;17.394;2022-07-22T10:26:04;23.60;52.00
43561;DHT22;32305;46.410;17.394;2022-07-22T10:28:36;23.60;51.90
43561;DHT22;32305;46.410;17.394;2022-07-22T10:31:22;23.60;51.80
43561;DHT22;32305;46.410;17.394;2022-07-22T10:33:54;23.60;51.20
43561;DHT22;32305;46.410;17.394;2022-07-22T10:36:34;23.50;50.60
43561;DHT22;32305;46.410;17.394;2022-07-22T10:39:09;23.30;51.10
43561;DHT22;32305;46.410;17.394;2022-07-22T10:41:39;23.10;51.40
43561;DHT22;32305;46.410;17.394;2022-07-22T10:44:08;23.00;52.30
43561;DHT22;32305;46.410;17.394;2022-07-22T10:46:51;22.80;52.60
43561;DHT22;32305;46.410;17.394;2022-07-22T10:49:23;22.70;53.00
43561;DHT22;32305;46.410;17.394;2022-07-22T10:52:12;22.70;53.40
43561;DHT22;32305;46.410;17.394;2022-07-22T10:55:15;22.60;53.80
43561;DHT22;32305;46.410;17.394;2022-07-22T10:57:43;22.60;54.20
43561;DHT22;32305;46.410;17.394;2022-07-22T11:00:10;22.50;54.40
43561;DHT22;32305;46.410;17.394;2022-07-22T11:02:38;22.50;54.70
43561;DHT22;32305;46.410;17.394;2022-07-22T11:05:07;22.50;54.80
43561;DHT22;32305;46.410;17.394;2022-07-22T11:07:46;22.50;54.90
43561;DHT22;32305;46.410;17.394;2022-07-22T11:10:16;22.50;54.90
43561;DHT22;32305;46.410;17.394;2022-07-22T11:12:48;22.50;55.40
43561;DHT22;32305;46.410;17.394;2022-07-22T11:15:17;22.60;54.70
43561;DHT22;32305;46.410;17.394;2022-07-22T11:17:45;22.60;54.60
43561;DHT22;32305;46.410;17.394;2022-07-22T11:20:16;22.60;54.70
43561;DHT22;32305;46.410;17.394;2022-07-22T11:22:46;22.60;55.30
43561;DHT22;32305;46.410;17.394;2022-07-22T11:25:18;22.60;55.70
43561;DHT22;32305;46.410;17.394;2022-07-22T11:27:52;22.60;55.70
43561;DHT22;32305;46.410;17.394;2022-07-22T11:30:20;22.60;55.70
43561;DHT22;32305;46.410;17.394;2022-07-22T11:32:48;22.60;55.70
43561;DHT22;32305;46.410;17.394;2022-07-22T11:35:15;22.60;55.80
43561;DHT22;32305;46.410;17.394;2022-07-22T11:37:43;22.60;55.70
43561;DHT22;32305;46.410;17.394;2022-07-22T11:40:21;22.60;56.00
43561;DHT22;32305;46.410;17.394;2022-07-22T11:43:01;22.60;55.90
43561;DHT22;32305;46.410;17.394;2022-07-22T11:45:28;22.60;55.40
43561;DHT22;32305;46.410;17.394;2022-07-22T11:47:56;22.60;55.40
43561;DHT22;32305;46.410;17.394;2022-07-22T11:50:33;22.60;55.40
43561;DHT22;32305;46.410;17.394;2022-07-22T11:53:02;22.60;55.30
43561;DHT22;32305;46.410;17.394;2022-07-22T11:55:29;22.60;55.40
43561;DHT22;32305;46.410;17.394;2022-07-22T11:57:57;22.50;55.40
43561;DHT22;32305;46.410;17.394;2022-07-22T12:00:24;22.50;55.30
43561;DHT22;32305;46.410;17.394;2022-07-22T12:02:52;22.50;55.60
43561;DHT22;32305;46.410;17.394;2022-07-22T12:05:19;22.50;55.70
43561;DHT22;32305;46.410;17.394;2022-07-22T12:08:02;22.50;55.30
43561;DHT22;32305;46.410;17.394;2022-07-22T12:10:30;22.50;54.90
43561;DHT22;32305;46.410;17.394;2022-07-22T12:12:57;22.50;54.90
43561;DHT22;32305;46.410;17.394;2022-07-22T12:15:24;22.50;54.90
43561;DHT22;32305;46.410;17.394;2022-07-22T12:18:20;22.50;54.90
43561;DHT22;32305;46.410;17.394;2022-07-22T12:20:48;22.50;54.90
43561;DHT22;32305;46.410;17.394;2022-07-22T12:23:21;22.50;54.90
43561;DHT22;32305;46.410;17.394;2022-07-22T12:25:54;22.50;54.90
43561;DHT22;32305;46.410;17.394;2022-07-22T12:28:21;22.50;54.80
43561;DHT22;32305;46.410;17.394;2022-07-22T12:30:50;22.50;55.30
43561;DHT22;32305;46.410;17.394;2022-07-22T12:33:19;22.60;54.70
43561;DHT22;32305;46.410;17.394;2022-07-22T12:36:07;22.60;54.60
43561;DHT22;32305;46.410;17.394;2022-07-22T12:38:34;22.60;54.60
43561;DHT22;32305;46.410;17.394;2022-07-22T12:41:26;22.60;54.50
43561;DHT22;32305;46.410;17.394;2022-07-22T12:43:56;22.60;54.40
43561;DHT22;32305;46.410;17.394;2022-07-22T12:46:24;22.50;54.50
43561;DHT22;32305;46.410;17.394;2022-07-22T12:48:53;22.50;54.40
43561;DHT22;32305;46.410;17.394;2022-07-22T12:51:20;22.50;54.40
43561;DHT22;32305;46.410;17.394;2022-07-22T12:53:48;22.50;54.70
43561;DHT22;32305;46.410;17.394;2022-07-22T12:56:15;22.50;54.80
43561;DHT22;32305;46.410;17.394;2022-07-22T12:58:42;22.50;54.90
43561;DHT22;32305;46.410;17.394;2022-07-22T13:01:09;22.50;54.90
43561;DHT22;32305;46.410;17.394;2022-07-22T13:03:36;22.50;55.00
43561;DHT22;32305;46.410;17.394;2022-07-22T13:06:04;22.50;55.00
43561;DHT22;32305;46.410;17.394;2022-07-22T13:08:34;22.50;54.90
43561;DHT22;32305;46.410;17.394;2022-07-22T13:11:12;22.50;54.90
43561;DHT22;32305;46.410;17.394;2022-07-22T13:13:41;22.50;54.90
43561;DHT22;32305;46.410;17.394;2022-07-22T13:16:10;22.50;55.00
43561;DHT22;32305;46.410;17.394;2022-07-22T13:18:38;22.50;54.90
43561;DHT22;32305;46.410;17.394;2022-07-22T13:21:05;22.60;54.90
43561;DHT22;32305;46.410;17.394;2022-07-22T13:23:33;22.50;54.70
43561;DHT22;32305;46.410;17.394;2022-07-22T13:26:00;22.50;54.40
43561;DHT22;32305;46.410;17.394;2022-07-22T13:28:27;22.50;54.20
43561;DHT22;32305;46.410;17.394;2022-07-22T13:30:54;22.50;54.20
43561;DHT22;32305;46.410;17.394;2022-07-22T13:33:22;22.40;54.10
43561;DHT22;32305;46.410;17.394;2022-07-22T13:35:49;22.40;54.00
43561;DHT22;32305;46.410;17.394;2022-07-22T13:38:16;22.40;53.90
43561;DHT22;32305;46.410;17.394;2022-07-22T13:40:44;22.40;53.80
43561;DHT22;32305;46.410;17.394;2022-07-22T13:43:20;22.30;53.90
43561;DHT22;32305;46.410;17.394;2022-07-22T13:45:48;22.30;53.90
43561;DHT22;32305;46.410;17.394;2022-07-22T13:48:16;22.20;53.90
43561;DHT22;32305;46.410;17.394;2022-07-22T13:50:48;22.20;53.90
43561;DHT22;32305;46.410;17.394;2022-07-22T13:53:15;22.20;53.80
43561;DHT22;32305;46.410;17.394;2022-07-22T13:55:42;22.20;53.80
43561;DHT22;32305;46.410;17.394;2022-07-22T13:58:09;22.20;53.80
43561;DHT22;32305;46.410;17.394;2022-07-22T14:00:37;22.10;53.70
43561;DHT22;32305;46.410;17.394;2022-07-22T14:03:05;22.10;53.70
43561;DHT22;32305;46.410;17.394;2022-07-22T14:05:33;22.10;53.70
43561;DHT22;32305;46.410;17.394;2022-07-22T14:08:00;22.10;54.30
43561;DHT22;32305;46.410;17.394;2022-07-22T14:10:27;22.00;53.70
43561;DHT22;32305;46.410;17.394;2022-07-22T14:12:55;22.10;53.60
43561;DHT22;32305;46.410;17.394;2022-07-22T14:15:22;22.00;53.50
43561;DHT22;32305;46.410;17.394;2022-07-22T14:17:49;22.00;53.50
43561;DHT22;32305;46.410;17.394;2022-07-22T14:20:16;22.00;53.40
43561;DHT22;32305;46.410;17.394;2022-07-22T14:22:43;22.00;53.50
43561;DHT22;32305;46.410;17.394;2022-07-22T14:25:10;22.00;53.50
43561;DHT22;32305;46.410;17.394;2022-07-22T14:27:37;22.00;53.40
43561;DHT22;32305;46.410;17.394;2022-07-22T14:30:05;22.00;53.30
43561;DHT22;32305;46.410;17.394;2022-07-22T14:32:32;22.00;53.40
43561;DHT22;32305;46.410;17.394;2022-07-22T14:35:00;22.00;53.30
43561;DHT22;32305;46.410;17.394;2022-07-22T14:37:28;22.00;53.30
43561;DHT22;32305;46.410;17.394;2022-07-22T14:39:56;22.00;53.30
43561;DHT22;32305;46.410;17.394;2022-07-22T14:42:23;22.00;53.30
43561;DHT22;32305;46.410;17.394;2022-07-22T14:44:50;22.00;53.20
43561;DHT22;32305;46.410;17.394;2022-07-22T14:47:17;21.90;53.30
43561;DHT22;32305;46.410;17.394;2022-07-22T14:49:45;21.90;53.30
43561;DHT22;32305;46.410;17.394;2022-07-22T14:52:12;21.90;53.00
43561;DHT22;32305;46.410;17.394;2022-07-22T14:54:39;21.90;55.30
43561;DHT22;32305;46.410;17.394;2022-07-22T14:57:06;22.00;56.30
43561;DHT22;32305;46.410;17.394;2022-07-22T14:59:34;22.10;57.20
43561;DHT22;32305;46.410;17.394;2022-07-22T15:02:01;22.30;58.00
43561;DHT22;32305;46.410;17.394;2022-07-22T15:04:28;22.50;58.60
43561;DHT22;32305;46.410;17.394;2022-07-22T15:06:55;22.70;58.80
43561;DHT22;32305;46.410;17.394;2022-07-22T15:09:22;22.90;59.30
43561;DHT22;32305;46.410;17.394;2022-07-22T15:11:50;23.20;59.00
43561;DHT22;32305;46.410;17.394;2022-07-22T15:14:19;23.40;59.00
43561;DHT22;32305;46.410;17.394;2022-07-22T15:16:46;23.60;58.50
43561;DHT22;32305;46.410;17.394;2022-07-22T15:19:13;23.90;58.70
43561;DHT22;32305;46.410;17.394;2022-07-22T15:21:40;24.10;58.70
43561;DHT22;32305;46.410;17.394;2022-07-22T15:24:08;24.30;58.50
43561;DHT22;32305;46.410;17.394;2022-07-22T15:26:35;24.50;58.40